Time;durP1;ratioP1;P1;durP2;ratioP2;P2;SDS_P1;SDS_P2;PMS_P1;PMS_P2;Temp;Humidity;BMP_temperature;BMP_pressure;BME280_temperature;BME280_humidity;BME280_pressure;Samples;Min_cycle;Max_cycle;Signal;HPM_P1;HPM_P2
2023/03/31 00:00:17;;;;;;;;;;;12.40;99.90;;;;;;4984417;28;19914;-89
2023/03/31 00:02:44;;;;;;;;;;;12.40;99.90;;;;;;4984786;28;20012;-89
2023/03/31 00:05:10;;;;;;;;;;;12.40;99.90;;;;;;5000576;28;20007;-89
2023/03/31 00:07:36;;;;;;;;;;;12.30;99.90;;;;;;5000563;28;19914;-89
2023/03/31 00:10:03;;;;;;;;;;;12.30;99.90;;;;;;5000134;28;20358;-90
2023/03/31 00:12:28;;;;;;;;;;;12.30;99.90;;;;;;5017836;28;19976;-90
2023/03/31 00:14:54;;;;;;;;;;;12.30;99.90;;;;;;5000986;28;19914;-90
2023/03/31 00:17:20;;;;;;;;;;;12.30;99.90;;;;;;4984269;28;19917;-89
2023/03/31 00:19:48;;;;;;;;;;;12.30;99.90;;;;;;4984201;28;19960;-90
2023/03/31 00:22:17;;;;;;;;;;;12.20;99.90;;;;;;4984205;28;19914;-90
2023/03/31 00:24:43;;;;;;;;;;;12.20;99.90;;;;;;4984277;28;20324;-89
2023/03/31 00:27:10;;;;;;;;;;;12.20;99.90;;;;;;4983742;28;19917;-90
2023/03/31 00:29:35;;;;;;;;;;;12.20;99.90;;;;;;4983966;28;19914;-89
2023/03/31 00:32:01;;;;;;;;;;;12.20;99.90;;;;;;5000431;28;19996;-89
2023/03/31 00:34:27;;;;;;;;;;;12.10;99.90;;;;;;4983856;28;19939;-89
2023/03/31 00:36:55;;;;;;;;;;;12.10;99.90;;;;;;4983258;28;19920;-89
2023/03/31 00:39:21;;;;;;;;;;;12.10;99.90;;;;;;4984124;28;19917;-89
2023/03/31 00:41:47;;;;;;;;;;;12.10;99.90;;;;;;4999527;28;20382;-88
2023/03/31 00:44:23;;;;;;;;;;;12.10;99.90;;;;;;4983320;28;19917;-88
2023/03/31 00:46:48;;;;;;;;;;;12.00;99.90;;;;;;5000001;28;19913;-90
2023/03/31 00:49:20;;;;;;;;;;;12.10;99.90;;;;;;4999886;28;19916;-91
2023/03/31 00:51:46;;;;;;;;;;;12.00;99.90;;;;;;5017296;28;19916;-92
2023/03/31 00:54:14;;;;;;;;;;;12.00;99.90;;;;;;4999766;28;19916;-91
2023/03/31 00:56:42;;;;;;;;;;;12.00;99.90;;;;;;5000195;28;20271;-91
2023/03/31 00:59:10;;;;;;;;;;;12.00;99.90;;;;;;4999835;28;20346;-91
2023/03/31 01:01:38;;;;;;;;;;;12.00;99.90;;;;;;4999455;28;19924;-88
2023/03/31 01:04:06;;;;;;;;;;;12.00;99.90;;;;;;4999728;28;20374;-91
2023/03/31 01:06:32;;;;;;;;;;;11.90;99.90;;;;;;4999404;28;19914;-91
2023/03/31 01:08:59;;;;;;;;;;;11.90;99.90;;;;;;4982834;28;19969;-90
2023/03/31 01:11:26;;;;;;;;;;;11.90;99.90;;;;;;4999063;28;19952;-90
2023/03/31 01:13:54;;;;;;;;;;;11.90;99.90;;;;;;4999336;28;20370;-91
2023/03/31 01:16:20;;;;;;;;;;;11.90;99.90;;;;;;4999891;28;19913;-91
2023/03/31 01:18:48;;;;;;;;;;;11.80;99.90;;;;;;5016411;28;19933;-89
2023/03/31 01:21:29;;;;;;;;;;;11.80;99.90;;;;;;4999257;28;19910;-89
2023/03/31 01:23:57;;;;;;;;;;;11.80;99.90;;;;;;4998719;28;19909;-89
2023/03/31 01:26:32;;;;;;;;;;;11.80;99.90;;;;;;4998615;28;19913;-89
2023/03/31 01:28:58;;;;;;;;;;;11.80;99.90;;;;;;4998903;28;19913;-88
2023/03/31 01:31:36;;;;;;;;;;;11.70;99.90;;;;;;4995433;28;19910;-88
2023/03/31 01:34:11;;;;;;;;;;;11.70;99.90;;;;;;4996344;28;20339;-88
2023/03/31 01:36:56;;;;;;;;;;;11.70;99.90;;;;;;4998726;28;19917;-88
2023/03/31 01:39:37;;;;;;;;;;;11.70;99.90;;;;;;4997864;28;19941;-88
2023/03/31 01:42:21;;;;;;;;;;;11.70;99.90;;;;;;4998864;28;20007;-88
2023/03/31 01:45:06;;;;;;;;;;;11.70;99.90;;;;;;4998276;28;19910;-88
2023/03/31 01:47:39;;;;;;;;;;;11.60;99.90;;;;;;4999218;28;20014;-88
2023/03/31 01:50:23;;;;;;;;;;;11.70;99.90;;;;;;4998769;28;19909;-89
2023/03/31 01:52:54;;;;;;;;;;;11.70;99.90;;;;;;4998109;28;20058;-87
2023/03/31 01:55:36;;;;;;;;;;;11.70;99.90;;;;;;4998042;28;20398;-88
2023/03/31 01:58:05;;;;;;;;;;;11.70;99.90;;;;;;4998114;28;19917;-88
2023/03/31 02:00:33;;;;;;;;;;;11.60;99.90;;;;;;4997947;28;20339;-87
2023/03/31 02:03:11;;;;;;;;;;;11.60;99.90;;;;;;4998089;28;19909;-89
2023/03/31 02:05:40;;;;;;;;;;;11.60;99.90;;;;;;4998074;28;20370;-89
2023/03/31 02:08:06;;;;;;;;;;;11.60;99.90;;;;;;4998602;28;20007;-91
2023/03/31 02:10:32;;;;;;;;;;;11.60;99.90;;;;;;5001045;28;19960;-89
2023/03/31 02:13:00;;;;;;;;;;;11.60;99.90;;;;;;4998488;28;19913;-89
2023/03/31 02:15:27;;;;;;;;;;;11.60;99.90;;;;;;4998053;28;20386;-89
2023/03/31 02:17:55;;;;;;;;;;;11.60;99.90;;;;;;5016473;28;19910;-89
2023/03/31 02:20:21;;;;;;;;;;;11.60;99.90;;;;;;4997755;28;19917;-89
2023/03/31 02:22:48;;;;;;;;;;;11.60;99.90;;;;;;4981714;28;20355;-89
2023/03/31 02:25:16;;;;;;;;;;;11.50;99.90;;;;;;4997912;28;19917;-87
2023/03/31 02:27:43;;;;;;;;;;;11.50;99.90;;;;;;4997177;28;20016;-88
2023/03/31 02:30:09;;;;;;;;;;;11.60;99.90;;;;;;4998168;28;19909;-87
2023/03/31 02:32:42;;;;;;;;;;;11.50;99.90;;;;;;4982238;28;20309;-87
2023/03/31 02:35:14;;;;;;;;;;;11.50;99.90;;;;;;5014842;28;19914;-88
2023/03/31 02:37:40;;;;;;;;;;;11.50;99.90;;;;;;4997925;28;19909;-87
2023/03/31 02:40:09;;;;;;;;;;;11.50;99.90;;;;;;4981512;28;19914;-87
2023/03/31 02:42:36;;;;;;;;;;;11.60;99.90;;;;;;4997508;28;20282;-88
2023/03/31 02:45:03;;;;;;;;;;;11.60;99.90;;;;;;4997454;28;20420;-89
2023/03/31 02:47:28;;;;;;;;;;;11.60;99.90;;;;;;4998486;28;20369;-88
2023/03/31 02:49:56;;;;;;;;;;;11.60;99.90;;;;;;4997357;28;19914;-86
2023/03/31 02:52:37;;;;;;;;;;;11.60;99.90;;;;;;4997249;28;19925;-89
2023/03/31 02:55:05;;;;;;;;;;;11.60;99.90;;;;;;4997223;28;19913;-88
2023/03/31 02:57:47;;;;;;;;;;;11.60;99.90;;;;;;4997420;28;19995;-88
2023/03/31 03:00:20;;;;;;;;;;;11.60;99.90;;;;;;4997214;28;19945;-90
2023/03/31 03:02:45;;;;;;;;;;;11.70;99.90;;;;;;4997747;28;19992;-88
2023/03/31 03:05:20;;;;;;;;;;;11.60;99.90;;;;;;4997032;28;20004;-87
2023/03/31 03:07:52;;;;;;;;;;;11.60;99.90;;;;;;4996844;28;20271;-87
2023/03/31 03:10:26;;;;;;;;;;;11.70;99.90;;;;;;5014579;28;19925;-87
2023/03/31 03:12:52;;;;;;;;;;;11.70;99.90;;;;;;4996949;28;20267;-88
2023/03/31 03:15:23;;;;;;;;;;;11.70;99.90;;;;;;4996898;28;19910;-89
2023/03/31 03:17:49;;;;;;;;;;;11.70;99.90;;;;;;4997384;28;19933;-89
2023/03/31 03:20:15;;;;;;;;;;;11.70;99.90;;;;;;4997348;28;19909;-89
2023/03/31 03:22:40;;;;;;;;;;;11.70;99.90;;;;;;4997823;28;20362;-90
2023/03/31 03:25:08;;;;;;;;;;;11.70;99.90;;;;;;4997914;28;19916;-90
2023/03/31 03:27:34;;;;;;;;;;;11.70;99.90;;;;;;5002221;28;19953;-88
2023/03/31 03:30:03;;;;;;;;;;;11.60;99.90;;;;;;5000601;28;20340;-88
2023/03/31 03:32:29;;;;;;;;;;;11.60;99.90;;;;;;4996904;28;19963;-90
2023/03/31 03:37:58;;;;;;;;;;;11.60;99.90;;;;;;5014888;28;19916;-89
2023/03/31 03:40:24;;;;;;;;;;;11.60;99.90;;;;;;4997895;28;19914;-89
2023/03/31 03:42:50;;;;;;;;;;;11.60;99.90;;;;;;5001119;28;19920;-89
2023/03/31 03:45:15;;;;;;;;;;;11.50;99.90;;;;;;4986140;28;19913;-89
2023/03/31 03:47:41;;;;;;;;;;;11.50;99.90;;;;;;5003274;28;19964;-88
2023/03/31 03:50:07;;;;;;;;;;;11.50;99.90;;;;;;4985060;28;19914;-88
2023/03/31 03:52:32;;;;;;;;;;;11.60;99.90;;;;;;4996908;28;20012;-88
2023/03/31 03:54:58;;;;;;;;;;;11.60;99.90;;;;;;4980928;28;19914;-88
2023/03/31 03:57:23;;;;;;;;;;;11.60;99.90;;;;;;5014711;28;19917;-88
2023/03/31 03:59:49;;;;;;;;;;;11.50;99.90;;;;;;4997154;28;20012;-88
2023/03/31 04:02:14;;;;;;;;;;;11.50;99.90;;;;;;4980558;28;19913;-88
2023/03/31 04:04:40;;;;;;;;;;;11.50;99.90;;;;;;4996766;28;20020;-88
2023/03/31 04:07:05;;;;;;;;;;;11.50;99.90;;;;;;5011773;28;19945;-91
2023/03/31 04:09:31;;;;;;;;;;;11.50;99.90;;;;;;4999020;28;19910;-90
2023/03/31 04:11:57;;;;;;;;;;;11.50;99.90;;;;;;5015062;28;19898;-91
2023/03/31 04:14:23;;;;;;;;;;;11.50;99.90;;;;;;5002568;28;19898;-91
2023/03/31 04:16:48;;;;;;;;;;;11.40;99.90;;;;;;5001399;28;19981;-90
2023/03/31 04:19:16;;;;;;;;;;;11.40;99.90;;;;;;5006372;28;19910;-91
2023/03/31 04:21:43;;;;;;;;;;;11.40;99.90;;;;;;5010110;28;19949;-91
2023/03/31 04:24:11;;;;;;;;;;;11.40;99.90;;;;;;4986743;28;19913;-91
2023/03/31 04:26:43;;;;;;;;;;;11.40;99.90;;;;;;5002454;28;20281;-91
2023/03/31 04:29:09;;;;;;;;;;;11.30;99.90;;;;;;4996642;28;20051;-91
2023/03/31 04:31:37;;;;;;;;;;;11.30;99.90;;;;;;5004011;28;19909;-91
2023/03/31 04:34:05;;;;;;;;;;;11.30;99.90;;;;;;5001729;28;20247;-92
2023/03/31 04:36:31;;;;;;;;;;;11.30;99.90;;;;;;4984988;28;19992;-92
2023/03/31 04:38:57;;;;;;;;;;;11.30;99.90;;;;;;4984539;28;19942;-89
2023/03/31 04:41:23;;;;;;;;;;;11.30;99.90;;;;;;4999762;28;19992;-88
2023/03/31 04:43:49;;;;;;;;;;;11.30;99.90;;;;;;4999927;28;19910;-88
2023/03/31 04:46:15;;;;;;;;;;;11.20;99.90;;;;;;4999968;28;19964;-88
2023/03/31 04:48:41;;;;;;;;;;;11.20;99.90;;;;;;4999910;28;19910;-89
2023/03/31 04:51:07;;;;;;;;;;;11.20;99.90;;;;;;4984248;28;20351;-88
2023/03/31 04:53:33;;;;;;;;;;;11.20;99.90;;;;;;4983544;28;19914;-89
2023/03/31 04:55:58;;;;;;;;;;;11.20;99.90;;;;;;4983233;28;19920;-86
2023/03/31 04:58:26;;;;;;;;;;;11.20;99.90;;;;;;4983274;28;19914;-87
2023/03/31 05:00:52;;;;;;;;;;;11.20;99.90;;;;;;4983663;28;19913;-86
2023/03/31 05:03:18;;;;;;;;;;;11.20;99.90;;;;;;4999889;28;19917;-88
2023/03/31 05:05:43;;;;;;;;;;;11.20;99.90;;;;;;4999239;28;19916;-87
2023/03/31 05:08:09;;;;;;;;;;;11.20;99.90;;;;;;4999225;28;20290;-87
2023/03/31 05:10:35;;;;;;;;;;;11.10;99.90;;;;;;4995576;28;19922;-88
2023/03/31 05:13:03;;;;;;;;;;;11.10;99.90;;;;;;4996435;28;19910;-88
2023/03/31 05:15:29;;;;;;;;;;;11.10;99.90;;;;;;4999814;28;19910;-88
2023/03/31 05:17:56;;;;;;;;;;;11.10;99.90;;;;;;4999222;28;20325;-88
2023/03/31 05:20:22;;;;;;;;;;;11.00;99.90;;;;;;5016350;28;19909;-88
2023/03/31 05:22:47;;;;;;;;;;;11.00;99.90;;;;;;4998802;28;19910;-89
2023/03/31 05:25:17;;;;;;;;;;;11.00;99.90;;;;;;4982574;28;19913;-88
2023/03/31 05:27:44;;;;;;;;;;;11.00;99.90;;;;;;4983630;28;19930;-88
2023/03/31 05:30:10;;;;;;;;;;;11.00;99.90;;;;;;4998948;28;20255;-89
2023/03/31 05:32:36;;;;;;;;;;;11.00;99.90;;;;;;4998950;28;19917;-89
2023/03/31 05:35:04;;;;;;;;;;;11.00;99.90;;;;;;4998746;28;19909;-89
2023/03/31 05:37:30;;;;;;;;;;;11.00;99.90;;;;;;4992596;28;19964;-89
2023/03/31 05:39:56;;;;;;;;;;;11.00;99.90;;;;;;5021103;28;19910;-89
2023/03/31 05:42:21;;;;;;;;;;;11.00;99.90;;;;;;4983601;28;19918;-89
2023/03/31 05:44:47;;;;;;;;;;;11.00;99.90;;;;;;4999959;28;19910;-89
2023/03/31 05:47:13;;;;;;;;;;;11.00;99.90;;;;;;4996559;28;19921;-92
2023/03/31 05:49:41;;;;;;;;;;;11.00;99.90;;;;;;5000998;28;19918;-92
2023/03/31 05:52:10;;;;;;;;;;;11.00;99.90;;;;;;5002529;28;19925;-92
2023/03/31 05:54:35;;;;;;;;;;;11.00;99.90;;;;;;5018135;28;19936;-91
2023/03/31 05:57:01;;;;;;;;;;;11.00;99.90;;;;;;4998606;28;19917;-91
2023/03/31 05:59:27;;;;;;;;;;;11.00;99.90;;;;;;5012171;28;19910;-92
2023/03/31 06:01:52;;;;;;;;;;;11.00;99.90;;;;;;4998433;28;19921;-90
2023/03/31 06:04:18;;;;;;;;;;;11.00;99.90;;;;;;4998294;28;19964;-90
2023/03/31 06:06:45;;;;;;;;;;;11.00;99.90;;;;;;4998216;28;20391;-90
2023/03/31 06:09:11;;;;;;;;;;;11.00;99.90;;;;;;4981839;28;19922;-90
2023/03/31 06:11:37;;;;;;;;;;;11.00;99.90;;;;;;4998807;28;19981;-90
2023/03/31 06:14:02;;;;;;;;;;;11.10;99.90;;;;;;4998974;28;20374;-89
2023/03/31 06:16:28;;;;;;;;;;;11.10;99.90;;;;;;4982127;28;20012;-90
2023/03/31 06:18:54;;;;;;;;;;;11.20;99.90;;;;;;4984958;28;19920;-93
2023/03/31 06:21:20;;;;;;;;;;;11.10;99.90;;;;;;5002427;28;19928;-93
2023/03/31 06:23:46;;;;;;;;;;;11.10;99.90;;;;;;5017090;28;19909;-92
2023/03/31 06:26:16;;;;;;;;;;;11.10;99.90;;;;;;5019620;28;19910;-93
2023/03/31 06:28:42;;;;;;;;;;;11.10;99.90;;;;;;5015899;28;19948;-92
2023/03/31 06:31:11;;;;;;;;;;;11.10;99.90;;;;;;5017074;28;19910;-91
2023/03/31 06:33:37;;;;;;;;;;;11.10;99.90;;;;;;5013952;28;20367;-93
2023/03/31 06:36:04;;;;;;;;;;;11.10;99.90;;;;;;5006942;28;20409;-90
2023/03/31 06:38:30;;;;;;;;;;;11.10;99.90;;;;;;4981699;28;19936;-90
2023/03/31 06:40:56;;;;;;;;;;;11.20;99.90;;;;;;4998377;28;19941;-90
2023/03/31 06:43:21;;;;;;;;;;;11.20;99.90;;;;;;4997776;28;19917;-90
2023/03/31 06:45:47;;;;;;;;;;;11.20;99.90;;;;;;4997739;28;19910;-90
2023/03/31 06:48:12;;;;;;;;;;;11.20;99.90;;;;;;4982858;28;19960;-89
2023/03/31 06:50:38;;;;;;;;;;;11.20;99.90;;;;;;4970016;28;19928;-90
2023/03/31 06:53:04;;;;;;;;;;;11.20;99.90;;;;;;4986409;28;20362;-90
2023/03/31 06:55:31;;;;;;;;;;;11.20;99.90;;;;;;4962929;28;19921;-91
2023/03/31 06:57:56;;;;;;;;;;;11.20;99.90;;;;;;4963046;28;20020;-89
2023/03/31 07:00:24;;;;;;;;;;;11.20;99.90;;;;;;5002160;28;19956;-89
2023/03/31 07:02:50;;;;;;;;;;;11.30;99.90;;;;;;4971847;28;20016;-89
2023/03/31 07:05:15;;;;;;;;;;;11.30;99.90;;;;;;4986639;28;19949;-89
2023/03/31 07:07:41;;;;;;;;;;;11.30;99.90;;;;;;4993182;28;19920;-89
2023/03/31 07:10:07;;;;;;;;;;;11.30;99.90;;;;;;4973300;28;19937;-88
2023/03/31 07:12:32;;;;;;;;;;;11.30;99.90;;;;;;4975020;28;20223;-89
2023/03/31 07:14:58;;;;;;;;;;;11.30;99.90;;;;;;4976958;28;19968;-89
2023/03/31 07:17:24;;;;;;;;;;;11.40;99.90;;;;;;4974516;28;20383;-89
2023/03/31 07:19:52;;;;;;;;;;;11.40;99.90;;;;;;4990854;28;19918;-86
2023/03/31 07:22:18;;;;;;;;;;;11.40;99.90;;;;;;4986078;28;19922;-87
2023/03/31 07:24:44;;;;;;;;;;;11.30;99.90;;;;;;4979663;28;19914;-87
2023/03/31 07:27:09;;;;;;;;;;;11.30;99.90;;;;;;4978689;28;19929;-89
2023/03/31 07:29:35;;;;;;;;;;;11.30;99.90;;;;;;4975332;28;20012;-89
2023/03/31 07:32:00;;;;;;;;;;;11.30;99.90;;;;;;4974353;28;19913;-89
2023/03/31 07:34:26;;;;;;;;;;;11.30;99.90;;;;;;4972053;28;19913;-88
2023/03/31 07:36:54;;;;;;;;;;;11.30;99.90;;;;;;4990399;28;19910;-88
2023/03/31 07:39:19;;;;;;;;;;;11.30;99.90;;;;;;4997664;28;19914;-88
2023/03/31 07:41:45;;;;;;;;;;;11.20;99.90;;;;;;4974236;28;20486;-88
2023/03/31 07:44:10;;;;;;;;;;;11.30;99.90;;;;;;4989931;28;19957;-87
2023/03/31 07:46:36;;;;;;;;;;;11.30;99.90;;;;;;5012013;28;19976;-86
2023/03/31 07:49:02;;;;;;;;;;;11.30;99.90;;;;;;4993235;28;19944;-87
2023/03/31 07:51:27;;;;;;;;;;;11.30;99.90;;;;;;4997675;28;19914;-87
2023/03/31 07:53:53;;;;;;;;;;;11.30;99.90;;;;;;4996713;28;20040;-86
2023/03/31 07:56:20;;;;;;;;;;;11.30;99.90;;;;;;4984863;28;19921;-87
2023/03/31 07:58:46;;;;;;;;;;;11.40;99.90;;;;;;5004201;28;19916;-90
2023/03/31 08:01:18;;;;;;;;;;;11.30;99.90;;;;;;5000686;28;19909;-87
2023/03/31 08:03:45;;;;;;;;;;;11.40;99.90;;;;;;5014574;28;19940;-89
2023/03/31 08:06:11;;;;;;;;;;;11.30;99.90;;;;;;5000536;28;20012;-88
2023/03/31 08:08:37;;;;;;;;;;;11.30;99.90;;;;;;4993623;28;19956;-87
2023/03/31 08:11:03;;;;;;;;;;;11.30;99.90;;;;;;4983584;28;19925;-89
2023/03/31 08:13:28;;;;;;;;;;;11.30;99.90;;;;;;4996297;28;19909;-87
2023/03/31 08:15:54;;;;;;;;;;;11.30;99.90;;;;;;5002628;28;19913;-90
2023/03/31 08:18:19;;;;;;;;;;;11.30;99.90;;;;;;5000004;28;19913;-91
2023/03/31 08:20:48;;;;;;;;;;;11.30;99.90;;;;;;4983349;28;19917;-87
2023/03/31 08:23:14;;;;;;;;;;;11.40;99.90;;;;;;4976239;28;19913;-91
2023/03/31 08:25:40;;;;;;;;;;;11.40;99.90;;;;;;4985143;28;19921;-92
2023/03/31 08:28:09;;;;;;;;;;;11.40;99.90;;;;;;4982938;28;19922;-91
2023/03/31 08:30:38;;;;;;;;;;;11.40;99.90;;;;;;4984567;28;19913;-93
2023/03/31 08:33:03;;;;;;;;;;;11.50;99.90;;;;;;4973888;28;20373;-89
2023/03/31 08:35:29;;;;;;;;;;;11.50;99.90;;;;;;4995561;28;19910;-88
2023/03/31 08:37:54;;;;;;;;;;;11.50;99.90;;;;;;4977862;28;19914;-87
2023/03/31 08:40:23;;;;;;;;;;;11.60;99.90;;;;;;5002236;28;19914;-88
2023/03/31 08:42:49;;;;;;;;;;;11.60;99.90;;;;;;4998080;28;19956;-88
2023/03/31 08:45:21;;;;;;;;;;;11.70;99.90;;;;;;4994986;28;19917;-88
2023/03/31 08:47:48;;;;;;;;;;;11.80;99.90;;;;;;4997150;28;19917;-88
2023/03/31 08:50:16;;;;;;;;;;;11.80;99.90;;;;;;5000848;28;19909;-89
2023/03/31 08:52:48;;;;;;;;;;;11.90;99.90;;;;;;4993059;28;19949;-89
2023/03/31 08:55:21;;;;;;;;;;;11.90;99.90;;;;;;4998786;28;19913;-90
2023/03/31 08:58:00;;;;;;;;;;;11.90;99.90;;;;;;4999554;28;19933;-91
2023/03/31 09:00:27;;;;;;;;;;;11.90;99.90;;;;;;4980289;28;19909;-90
2023/03/31 09:02:53;;;;;;;;;;;12.00;99.90;;;;;;4983074;28;19910;-89
2023/03/31 09:05:27;;;;;;;;;;;12.00;99.90;;;;;;4995354;28;20283;-87
2023/03/31 09:08:11;;;;;;;;;;;12.10;99.90;;;;;;4997791;28;19929;-88
2023/03/31 09:10:40;;;;;;;;;;;12.10;99.90;;;;;;4988889;28;19918;-87
2023/03/31 09:13:15;;;;;;;;;;;12.20;99.90;;;;;;4991505;28;19975;-87
2023/03/31 09:15:44;;;;;;;;;;;12.10;99.90;;;;;;4993199;28;19917;-87
2023/03/31 09:18:16;;;;;;;;;;;12.10;99.90;;;;;;5009400;28;19992;-87
2023/03/31 09:20:43;;;;;;;;;;;12.20;99.90;;;;;;4997660;28;20012;-86
2023/03/31 09:23:15;;;;;;;;;;;12.20;99.90;;;;;;4996307;28;19909;-86
2023/03/31 09:25:41;;;;;;;;;;;12.20;99.90;;;;;;4992785;28;19952;-88
2023/03/31 09:28:16;;;;;;;;;;;12.20;99.90;;;;;;4993481;28;19917;-87
2023/03/31 09:30:42;;;;;;;;;;;12.20;99.90;;;;;;4993739;28;19916;-87
2023/03/31 09:33:16;;;;;;;;;;;12.20;99.90;;;;;;4975766;28;19917;-88
2023/03/31 09:35:42;;;;;;;;;;;12.20;99.90;;;;;;5015328;28;19971;-87
2023/03/31 09:38:11;;;;;;;;;;;12.30;99.90;;;;;;4977419;28;20355;-87
2023/03/31 09:40:37;;;;;;;;;;;12.30;99.90;;;;;;5011725;28;19921;-87
2023/03/31 09:43:03;;;;;;;;;;;12.40;99.90;;;;;;5014415;28;20378;-87
2023/03/31 09:45:29;;;;;;;;;;;12.30;99.90;;;;;;5000440;28;20259;-86
2023/03/31 09:48:00;;;;;;;;;;;12.40;99.90;;;;;;4996567;28;20008;-86
2023/03/31 09:50:26;;;;;;;;;;;12.40;99.90;;;;;;4997192;28;19914;-87
2023/03/31 09:52:52;;;;;;;;;;;12.40;99.90;;;;;;4996755;28;19920;-87
2023/03/31 09:55:20;;;;;;;;;;;12.40;99.90;;;;;;4978035;28;19921;-92
2023/03/31 09:57:45;;;;;;;;;;;12.40;99.90;;;;;;4999853;28;19920;-90
2023/03/31 10:00:15;;;;;;;;;;;12.50;99.90;;;;;;5012119;28;19914;-91
2023/03/31 10:02:54;;;;;;;;;;;12.50;99.90;;;;;;5012661;28;19913;-92
2023/03/31 10:05:36;;;;;;;;;;;12.50;99.90;;;;;;5008124;28;19968;-91
2023/03/31 10:08:16;;;;;;;;;;;12.60;99.90;;;;;;5011101;28;19952;-92
2023/03/31 10:19:52;;;;;;;;;;;12.60;99.90;;;;;;5163085;23;19936;-92
2023/03/31 10:22:20;;;;;;;;;;;12.70;99.90;;;;;;5013084;28;19909;-91
2023/03/31 10:24:47;;;;;;;;;;;12.70;99.90;;;;;;5017174;28;20388;-88
2023/03/31 10:27:18;;;;;;;;;;;12.70;99.90;;;;;;5005474;28;19918;-89
2023/03/31 10:29:44;;;;;;;;;;;12.70;99.90;;;;;;5022659;28;19924;-91
2023/03/31 10:32:29;;;;;;;;;;;12.70;99.90;;;;;;5036332;28;19917;-88
2023/03/31 10:34:55;;;;;;;;;;;12.70;99.90;;;;;;5033341;28;19912;-89
2023/03/31 10:37:22;;;;;;;;;;;12.70;99.90;;;;;;5015832;28;19952;-88
2023/03/31 10:39:55;;;;;;;;;;;12.70;99.90;;;;;;5007856;28;19996;-88
2023/03/31 10:42:21;;;;;;;;;;;12.70;99.90;;;;;;5018745;28;20316;-90
2023/03/31 10:44:47;;;;;;;;;;;12.70;99.90;;;;;;5014721;28;19914;-90
2023/03/31 10:47:12;;;;;;;;;;;12.80;99.90;;;;;;5016983;28;20432;-91
2023/03/31 10:49:39;;;;;;;;;;;12.90;99.90;;;;;;5016767;28;19909;-88
2023/03/31 10:52:14;;;;;;;;;;;12.90;99.90;;;;;;5014362;28;19996;-91
2023/03/31 10:54:45;;;;;;;;;;;13.00;99.90;;;;;;5014914;28;19913;-92
2023/03/31 10:57:10;;;;;;;;;;;13.00;99.90;;;;;;5009531;28;20232;-92
2023/03/31 10:59:42;;;;;;;;;;;13.10;99.90;;;;;;4998839;28;19913;-92
2023/03/31 11:02:14;;;;;;;;;;;13.20;99.90;;;;;;4997879;28;19910;-94
2023/03/31 11:04:50;;;;;;;;;;;13.30;99.90;;;;;;5031016;28;19916;-93
2023/03/31 11:07:19;;;;;;;;;;;13.30;99.90;;;;;;4997983;28;19913;-93
2023/03/31 11:09:51;;;;;;;;;;;13.30;99.90;;;;;;5038798;28;19909;-88
2023/03/31 11:12:20;;;;;;;;;;;13.40;99.90;;;;;;5017826;28;19916;-88
2023/03/31 11:14:49;;;;;;;;;;;13.30;99.90;;;;;;5016589;28;19910;-88
2023/03/31 11:17:33;;;;;;;;;;;13.40;99.90;;;;;;5015772;28;19909;-90
2023/03/31 11:19:58;;;;;;;;;;;13.40;99.90;;;;;;5017066;28;19922;-89
2023/03/31 11:22:24;;;;;;;;;;;13.40;99.90;;;;;;5016344;28;19916;-88
2023/03/31 11:24:53;;;;;;;;;;;13.40;99.90;;;;;;5021923;28;20274;-88
2023/03/31 11:27:28;;;;;;;;;;;13.40;99.90;;;;;;5014590;28;20367;-89
2023/03/31 11:30:07;;;;;;;;;;;13.40;99.90;;;;;;5014539;28;19952;-87
2023/03/31 11:32:37;;;;;;;;;;;13.50;99.90;;;;;;5019315;28;19952;-88
2023/03/31 11:35:38;;;;;;;;;;;;;;;;;;;;;
2023/03/31 11:38:16;;;;;;;;;;;13.30;99.90;;;;;;5034096;28;19913;-88
2023/03/31 11:40:46;;;;;;;;;;;13.50;99.90;;;;;;5020130;28;19967;-88
2023/03/31 11:43:31;;;;;;;;;;;13.40;99.90;;;;;;5023447;28;19910;-87
2023/03/31 11:46:02;;;;;;;;;;;13.50;99.90;;;;;;5052848;28;19909;-87
2023/03/31 11:48:43;;;;;;;;;;;13.50;99.90;;;;;;5019694;28;19921;-86
2023/03/31 11:51:15;;;;;;;;;;;13.60;99.90;;;;;;5019854;28;20281;-85
2023/03/31 11:53:42;;;;;;;;;;;13.60;99.90;;;;;;5036594;28;20313;-85
2023/03/31 11:56:09;;;;;;;;;;;13.70;99.90;;;;;;5020371;28;19913;-86
2023/03/31 11:58:41;;;;;;;;;;;13.70;99.90;;;;;;5019831;28;19992;-86
2023/03/31 12:01:16;;;;;;;;;;;13.70;99.90;;;;;;5019774;28;19909;-86
2023/03/31 12:03:46;;;;;;;;;;;13.80;99.90;;;;;;5019444;28;19909;-86
2023/03/31 12:06:17;;;;;;;;;;;13.70;99.90;;;;;;5036933;28;20358;-86
2023/03/31 12:08:50;;;;;;;;;;;13.80;99.90;;;;;;5014823;28;20339;-86
2023/03/31 12:11:20;;;;;;;;;;;13.80;99.90;;;;;;5015822;28;19960;-85
2023/03/31 12:14:05;;;;;;;;;;;13.70;99.90;;;;;;5019402;28;19955;-87
2023/03/31 12:16:33;;;;;;;;;;;13.70;99.90;;;;;;5019406;28;19999;-85
2023/03/31 12:19:13;;;;;;;;;;;13.80;99.90;;;;;;5025138;28;20339;-86
2023/03/31 12:21:40;;;;;;;;;;;13.80;99.90;;;;;;5018277;28;19909;-85
2023/03/31 12:24:10;;;;;;;;;;;13.80;99.90;;;;;;5036389;28;20365;-85
2023/03/31 12:27:02;;;;;;;;;;;13.80;99.90;;;;;;5017949;28;19913;-86
2023/03/31 12:29:33;;;;;;;;;;;13.80;99.90;;;;;;4976377;28;19920;-85
2023/03/31 12:32:03;;;;;;;;;;;13.80;99.90;;;;;;5032168;28;20319;-94
2023/03/31 12:34:30;;;;;;;;;;;13.80;99.90;;;;;;5035350;28;19910;-94
2023/03/31 12:37:18;;;;;;;;;;;13.80;99.90;;;;;;5036719;28;19917;-94
2023/03/31 12:39:50;;;;;;;;;;;13.80;99.90;;;;;;5021433;28;19928;-92
2023/03/31 12:42:34;;;;;;;;;;;13.80;99.90;;;;;;5037871;28;19909;-93
2023/03/31 12:45:19;;;;;;;;;;;13.80;99.90;;;;;;5045381;28;19916;-92
2023/03/31 12:47:57;;;;;;;;;;;13.80;99.90;;;;;;5018130;28;19913;-94
2023/03/31 12:50:31;;;;;;;;;;;13.90;99.90;;;;;;5031218;28;19909;-94
2023/03/31 12:53:00;;;;;;;;;;;13.80;99.90;;;;;;5020586;28;20400;-92
2023/03/31 12:55:28;;;;;;;;;;;13.80;99.90;;;;;;5020309;28;19909;-93
2023/03/31 12:58:13;;;;;;;;;;;13.80;99.90;;;;;;5019882;28;19917;-93
2023/03/31 13:00:58;;;;;;;;;;;13.70;99.90;;;;;;5036775;28;20015;-92
2023/03/31 13:03:36;;;;;;;;;;;13.70;99.90;;;;;;5020655;28;19921;-92
2023/03/31 13:06:03;;;;;;;;;;;13.60;99.90;;;;;;5000052;28;19909;-86
2023/03/31 13:08:51;;;;;;;;;;;13.70;99.90;;;;;;5006949;28;20251;-84
2023/03/31 13:11:41;;;;;;;;;;;13.70;99.90;;;;;;5006969;28;20331;-85
2023/03/31 13:14:16;;;;;;;;;;;13.60;99.90;;;;;;5004297;28;19913;-85
2023/03/31 13:16:42;;;;;;;;;;;13.60;99.90;;;;;;5009484;28;19924;-85
2023/03/31 13:19:12;;;;;;;;;;;13.60;99.90;;;;;;5004585;28;19921;-85
2023/03/31 13:21:54;;;;;;;;;;;13.70;99.90;;;;;;5015673;28;19917;-85
2023/03/31 13:24:23;;;;;;;;;;;13.70;99.90;;;;;;5038754;28;20010;-94
2023/03/31 13:26:50;;;;;;;;;;;13.70;99.90;;;;;;5022294;28;19940;-94
2023/03/31 13:29:16;;;;;;;;;;;13.70;99.90;;;;;;5022109;28;19900;-94
2023/03/31 13:32:18;;;;;;;;;;;13.70;99.90;;;;;;5015433;28;19945;-93
2023/03/31 13:34:53;;;;;;;;;;;13.70;99.90;;;;;;4943354;29;19910;-94
2023/03/31 13:37:43;;;;;;;;;;;13.70;99.90;;;;;;4994858;28;19917;-94
2023/03/31 13:40:23;;;;;;;;;;;13.70;99.90;;;;;;5010332;28;19967;-85
2023/03/31 13:43:08;;;;;;;;;;;13.70;99.90;;;;;;5024786;28;19980;-85
2023/03/31 13:45:45;;;;;;;;;;;13.60;99.90;;;;;;5027004;28;19912;-86
2023/03/31 13:48:24;;;;;;;;;;;13.60;99.90;;;;;;5034200;28;20358;-85
2023/03/31 13:50:56;;;;;;;;;;;13.50;99.90;;;;;;5015582;28;19909;-85
2023/03/31 13:53:23;;;;;;;;;;;13.60;99.90;;;;;;5033148;28;20532;-85
2023/03/31 13:55:59;;;;;;;;;;;13.50;99.90;;;;;;5016837;28;19909;-95
2023/03/31 13:58:44;;;;;;;;;;;13.40;99.90;;;;;;5018481;28;20373;-94
2023/03/31 14:01:28;;;;;;;;;;;13.40;99.90;;;;;;5021726;28;19909;-93
2023/03/31 14:03:54;;;;;;;;;;;13.30;99.90;;;;;;5016121;28;19913;-92
2023/03/31 14:06:35;;;;;;;;;;;13.30;99.90;;;;;;5018997;28;19916;-92
2023/03/31 14:09:08;;;;;;;;;;;13.20;99.90;;;;;;5013734;28;19917;-86
2023/03/31 14:11:33;;;;;;;;;;;13.20;99.90;;;;;;5011716;28;19914;-85
2023/03/31 14:14:10;;;;;;;;;;;13.20;99.90;;;;;;5029995;28;19917;-85
2023/03/31 14:16:37;;;;;;;;;;;13.20;99.90;;;;;;5013512;28;19960;-85
2023/03/31 14:19:09;;;;;;;;;;;13.20;99.90;;;;;;5011348;28;19956;-94
2023/03/31 14:21:40;;;;;;;;;;;13.20;99.90;;;;;;5020517;28;19913;-95
2023/03/31 14:24:15;;;;;;;;;;;13.10;99.90;;;;;;5024778;28;19940;-94
2023/03/31 14:26:59;;;;;;;;;;;13.10;99.90;;;;;;5027389;28;19932;-94
2023/03/31 14:29:34;;;;;;;;;;;13.10;99.90;;;;;;5023291;28;19910;-94
2023/03/31 14:32:03;;;;;;;;;;;13.20;99.90;;;;;;5018884;28;19913;-93
2023/03/31 14:34:35;;;;;;;;;;;13.20;99.90;;;;;;5014745;28;19909;-92
2023/03/31 14:37:16;;;;;;;;;;;13.20;99.90;;;;;;5020233;28;19913;-95
2023/03/31 14:39:43;;;;;;;;;;;13.10;99.90;;;;;;5019228;28;19909;-93
2023/03/31 14:42:11;;;;;;;;;;;13.10;99.90;;;;;;5011674;28;19965;-92
2023/03/31 14:44:37;;;;;;;;;;;13.00;99.90;;;;;;5038044;28;20366;-92